New Preston, Connecticut
Current Conditions -  °F | °C
As of 7:52 AM on Sunday 21 Dec 2014 (Local Time) from KOXC Reporting Station
Overcast Overcast  
Wind Chill: 23°   Ceiling: 1500
Heat Index: 30°   Visibility: 8mi
Dew Point: 21°   Wind: 8mph
Humidity: 69%   Direction: 40°NE
Pressure: 30.26"   Gusts: NA
Location:  41.6879°N, 73.3378°W
Report Text: KOXC 211152Z 04007KT 8SM OVC015 M01/M06 A3026
Loading
Personal Weather Stations






























Interactive Weather Map New forecast layout! Learn more

10-Day Weather Forecast

Advertisements
Track Severe Weather on mobile